Ana Sayfa
METAR-TAF:

METAR-TAF

Havaalanları :

Cadillac, Michigan, Amerika Birleşik Devletleri

Enlem: 44-17N, Boylam: 085-25W, yükseklik: 398 m

Güncel hava durumu gözlemi

Rapor saat 04:35 UTC de 20 dakika önce yapıldı.
Rüzgar güney/güneybatıdan 18 kt ve 23 kt'a kadar ani rüzgarlar
Sıcaklık -3°C
Nem 80%
Basınç 1023 hPa
Görüş mesafesi: 16.1 km
1500 ft yükseklikte çok bulutlu

METAR: KCAD 220435Z AUTO 21018G23KT 10SM OVC015 M03/M06 A3021 RMK AO2 T10361066

Saat: 23:55 (04:55 UTC)


TAF: eksik

4.000'den fazla havaalanı için hava durumu gözlemleri ve tahminleri (METAR ve TAF raporları).

Kullanılabilir istasyonlar harita üzerinde sarı ve kırmızı noktalarla gösterilir.

İstasyonun adını görmek için fareyi noktanın üzerinde gezdirin.

Sonrasında hava gözlem ve tahminlerini görmek için tıklayın.

Haritayı değiştirmek için: yaklaştırmak için siyah artı işaretli yeşil düğmeye ve uzaklaştırmak için de eksi işaretli düğmeye hızla tıklayın; bitişik haritalar için yeşil okları kullanın.


METAR-TAF: